(°C)
10°
11°
11°
(°C)
BGB
B
B
B
B
BKB
BKB
(km/saat)
9-15
10-17
10-18
11-21
12-21
13-22
13-22
(mm)
0
0
0
0
0
0
0
(%)
0
5
0
0
0
0
0

Güneşin açısı

/ 6.5°
sun-icon
UV 1
07:46
18:28
Hilal (132°)
17:39
02:21

Bordenau (ETNW) için METAR

Zaman Koşullar Sıcaklık/
Çiy noktası
Rüzgar Görünürlük Hava Bulutlar Basınç Değiştir Ham
6°C / 5°C 280º 5kt 4300m - 1021 - ETNW 160520Z AUTO 28005KT 4300 // ////// 06/05 Q1021 ///
5°C / 5°C 280º 4kt 4300m - 1020 - ETNW 160220Z AUTO 28004KT 4300 // ////// 05/05 Q1020 ///
7°C / 6°C 260º 5kt 4300m - 1020 - ETNW 160120Z AUTO 26005KT 4300 // ////// 07/06 Q1020 ///
6°C / 6°C 260º 5kt 4400m - 1020 - ETNW 160020Z AUTO 26005KT 4400 // ////// 06/06 Q1020 ///
6°C / 6°C 280º 5kt 4500m - 1020 - ETNW 152320Z AUTO 28005KT 4500 // ////// 06/06 Q1020 ///
6°C / 6°C 280º 5kt 4400m - 1020 - ETNW 152220Z AUTO 28005KT 4400 // ////// 06/06 Q1020 ///
7°C / 6°C 280º 4kt 4600m - 1020 - ETNW 152120Z AUTO 28004KT 4600 // ////// 07/06 Q1020 ///
7°C / 6°C 270º 4kt 4600m - 1019 - ETNW 152020Z AUTO 27004KT 4600 // ////// 07/06 Q1019 ///
8°C / 7°C 260º 5kt 4800m - 1019 - ETNW 151920Z AUTO 26005KT 4800 // ////// 08/07 Q1019 ///
8°C / 7°C 270º 5kt >10km - 1019 - ETNW 151916Z 27005KT 9999 08/07 Q1019 BLU+FCST CANCEL
9°C / 7°C 290º 7kt >10km - 1019 - ETNW 151820Z 29007KT 9999 09/07 Q1019 BLU+BLU+
VFR 9°C / 6°C 270º 5kt >10km - Few Clouds 3500ft 1018 - ETNW 151720Z 27005KT 9999 FEW035 09/06 Q1018 BLU+BLU+
VFR 11°C / 6°C 310º 8kt >10km - Few Clouds 3500ft 1017 - ETNW 151620Z 31008KT 9999 FEW035 11/06 Q1017 BLU+BLU+
VFR 12°C / 7°C 300º 7kt >10km - Few Clouds 2200ft 1016 - ETNW 151520Z 30007KT 9999 FEW022 12/07 Q1016 BLU+BLU+
VFR 12°C / 8°C 300º 10kt >10km - Few Clouds 2700ft
Scattered Clouds 6000ft
1016 - ETNW 151420Z 30010KT 9999 FEW027 SCT060 12/08 Q1016 BLU+BLU+
MVFR 13°C / 6°C 330º 13kt Gust 23kt >10km Light Showers Rain 3.00mm precipitation Vertical Visibility of 0ft. 1015 - ETNW 151320Z 33013G23KT 9999 -SHRA BKN027 13/06 Q1015 BLU BLU+
VFR 13°C / 9°C 310º 11kt >10km - Few Clouds 1500ft
Scattered Clouds 2300ft
1015 - ETNW 151220Z 31011KT 9999 FEW015 SCT023 13/09 Q1015 BLU+BLU+
VFR 12°C / 10°C 330º 9kt >10km - Few Clouds 1500ft
Scattered Clouds 2000ft
1015 - ETNW 151130Z 33009KT 9999 FEW015 SCT020 12/10 Q1015 BLU+BLU+
MVFR 11°C / 10°C 310º 9kt >10km - Few Clouds 1400ft
Broken Clouds 2400ft
Broken Clouds 4500ft
1015 Temporary: YLO ETNW 151120Z 31009KT 9999 FEW014 BKN024 BKN045 11/10 Q1015 WHT BLU TEMPO YLO
MVFR 10°C / 10°C 290º 11kt >10km - Few Clouds 1400ft
Broken Clouds 2400ft
Broken Clouds 4500ft
1014 Temporary: YLO ETNW 151042Z 29011KT 9999 FEW014 BKN024 BKN045 10/10 Q1014 WHT BLU TEMPO YLO
VFR 10°C / 10°C 290º 11kt >10km Light Rain 1.00mm precipitation Vertical Visibility of 0ft.
Broken Clouds 4700ft
1014 Temporary: YLO ETNW 151020Z 29011KT 9999 -RA FEW013 BKN047 10/10 Q1014 BLU BLU TEMPO YLO
VFR 11°C / 10°C 320º 11kt >10km Light Rain 1.00mm precipitation Vertical Visibility of 0ft.
Scattered Clouds 1800ft
Broken Clouds 5500ft
1013 Temporary: YLO ETNW 150929Z 32011KT 9999 -RA FEW011 SCT018 BKN055 11/10 Q1013 BLU BLU TEMPO YLO
MVFR 11°C / 11°C 320º 15kt 8000m Light Rain 1.00mm precipitation Vertical Visibility of 0ft.
Broken Clouds 1200ft
Overcast 2800ft
1012 Temporary: YLO ETNW 150855Z 32015KT 8000 -RA FEW008 BKN012 OVC028 11/11 Q1012 RERA GRN BLU TEMPO YLO
MVFR 11°C / 11°C 320º 17kt 5000m Light Rain Mist 1.00mm precipitation Vertical Visibility of 0ft.
Broken Clouds 1100ft
Overcast 2800ft
1012 Temporary: YLO ETNW 150850Z 32017KT 5000 -RA BR FEW007 BKN011 OVC028 11/11 Q1012 RERA GRN BLU TEMPO YLO

6°C / 5°C

[Daha fazla]
Rüzgar 280º 5kt
Görünürlük 4300m
Hava -
Bulutlar
Basınç 1021
Değiştir -
Ham ETNW 160520Z AUTO 28005KT 4300 // ////// 06/05 Q1021 ///

5°C / 5°C

[Daha fazla]
Rüzgar 280º 4kt
Görünürlük 4300m
Hava -
Bulutlar
Basınç 1020
Değiştir -
Ham ETNW 160220Z AUTO 28004KT 4300 // ////// 05/05 Q1020 ///

7°C / 6°C

[Daha fazla]
Rüzgar 260º 5kt
Görünürlük 4300m
Hava -
Bulutlar
Basınç 1020
Değiştir -
Ham ETNW 160120Z AUTO 26005KT 4300 // ////// 07/06 Q1020 ///

6°C / 6°C

[Daha fazla]
Rüzgar 260º 5kt
Görünürlük 4400m
Hava -
Bulutlar
Basınç 1020
Değiştir -
Ham ETNW 160020Z AUTO 26005KT 4400 // ////// 06/06 Q1020 ///

6°C / 6°C

[Daha fazla]
Rüzgar 280º 5kt
Görünürlük 4500m
Hava -
Bulutlar
Basınç 1020
Değiştir -
Ham ETNW 152320Z AUTO 28005KT 4500 // ////// 06/06 Q1020 ///

6°C / 6°C

[Daha fazla]
Rüzgar 280º 5kt
Görünürlük 4400m
Hava -
Bulutlar
Basınç 1020
Değiştir -
Ham ETNW 152220Z AUTO 28005KT 4400 // ////// 06/06 Q1020 ///

7°C / 6°C

[Daha fazla]
Rüzgar 280º 4kt
Görünürlük 4600m
Hava -
Bulutlar
Basınç 1020
Değiştir -
Ham ETNW 152120Z AUTO 28004KT 4600 // ////// 07/06 Q1020 ///

7°C / 6°C

[Daha fazla]
Rüzgar 270º 4kt
Görünürlük 4600m
Hava -
Bulutlar
Basınç 1019
Değiştir -
Ham ETNW 152020Z AUTO 27004KT 4600 // ////// 07/06 Q1019 ///

8°C / 7°C

[Daha fazla]
Rüzgar 260º 5kt
Görünürlük 4800m
Hava -
Bulutlar
Basınç 1019
Değiştir -
Ham ETNW 151920Z AUTO 26005KT 4800 // ////// 08/07 Q1019 ///

8°C / 7°C

[Daha fazla]
Rüzgar 270º 5kt
Görünürlük >10km
Hava -
Bulutlar
Basınç 1019
Değiştir -
Ham ETNW 151916Z 27005KT 9999 08/07 Q1019 BLU+FCST CANCEL

9°C / 7°C

[Daha fazla]
Rüzgar 290º 7kt
Görünürlük >10km
Hava -
Bulutlar
Basınç 1019
Değiştir -
Ham ETNW 151820Z 29007KT 9999 09/07 Q1019 BLU+BLU+

VFR

9°C / 6°C

[Daha fazla]
Rüzgar 270º 5kt
Görünürlük >10km
Hava -
Bulutlar Few Clouds 3500ft
Basınç 1018
Değiştir -
Ham ETNW 151720Z 27005KT 9999 FEW035 09/06 Q1018 BLU+BLU+

VFR

11°C / 6°C

[Daha fazla]
Rüzgar 310º 8kt
Görünürlük >10km
Hava -
Bulutlar Few Clouds 3500ft
Basınç 1017
Değiştir -
Ham ETNW 151620Z 31008KT 9999 FEW035 11/06 Q1017 BLU+BLU+

VFR

12°C / 7°C

[Daha fazla]
Rüzgar 300º 7kt
Görünürlük >10km
Hava -
Bulutlar Few Clouds 2200ft
Basınç 1016
Değiştir -
Ham ETNW 151520Z 30007KT 9999 FEW022 12/07 Q1016 BLU+BLU+

VFR

12°C / 8°C

[Daha fazla]
Rüzgar 300º 10kt
Görünürlük >10km
Hava -
Bulutlar Few Clouds 2700ft
Scattered Clouds 6000ft
Basınç 1016
Değiştir -
Ham ETNW 151420Z 30010KT 9999 FEW027 SCT060 12/08 Q1016 BLU+BLU+

MVFR

13°C / 6°C

[Daha fazla]
Rüzgar 330º 13kt Gust 23kt
Görünürlük >10km
Hava Light Showers Rain 3.00mm precipitation
Bulutlar Vertical Visibility of 0ft.
Basınç 1015
Değiştir -
Ham ETNW 151320Z 33013G23KT 9999 -SHRA BKN027 13/06 Q1015 BLU BLU+

VFR

13°C / 9°C

[Daha fazla]
Rüzgar 310º 11kt
Görünürlük >10km
Hava -
Bulutlar Few Clouds 1500ft
Scattered Clouds 2300ft
Basınç 1015
Değiştir -
Ham ETNW 151220Z 31011KT 9999 FEW015 SCT023 13/09 Q1015 BLU+BLU+

VFR

12°C / 10°C

[Daha fazla]
Rüzgar 330º 9kt
Görünürlük >10km
Hava -
Bulutlar Few Clouds 1500ft
Scattered Clouds 2000ft
Basınç 1015
Değiştir -
Ham ETNW 151130Z 33009KT 9999 FEW015 SCT020 12/10 Q1015 BLU+BLU+

MVFR

11°C / 10°C

[Daha fazla]
Rüzgar 310º 9kt
Görünürlük >10km
Hava -
Bulutlar Few Clouds 1400ft
Broken Clouds 2400ft
Broken Clouds 4500ft
Basınç 1015
Değiştir Temporary: YLO
Ham ETNW 151120Z 31009KT 9999 FEW014 BKN024 BKN045 11/10 Q1015 WHT BLU TEMPO YLO

MVFR

10°C / 10°C

[Daha fazla]
Rüzgar 290º 11kt
Görünürlük >10km
Hava -
Bulutlar Few Clouds 1400ft
Broken Clouds 2400ft
Broken Clouds 4500ft
Basınç 1014
Değiştir Temporary: YLO
Ham ETNW 151042Z 29011KT 9999 FEW014 BKN024 BKN045 10/10 Q1014 WHT BLU TEMPO YLO

VFR

10°C / 10°C

[Daha fazla]
Rüzgar 290º 11kt
Görünürlük >10km
Hava Light Rain 1.00mm precipitation
Bulutlar Vertical Visibility of 0ft.
Broken Clouds 4700ft
Basınç 1014
Değiştir Temporary: YLO
Ham ETNW 151020Z 29011KT 9999 -RA FEW013 BKN047 10/10 Q1014 BLU BLU TEMPO YLO

VFR

11°C / 10°C

[Daha fazla]
Rüzgar 320º 11kt
Görünürlük >10km
Hava Light Rain 1.00mm precipitation
Bulutlar Vertical Visibility of 0ft.
Scattered Clouds 1800ft
Broken Clouds 5500ft
Basınç 1013
Değiştir Temporary: YLO
Ham ETNW 150929Z 32011KT 9999 -RA FEW011 SCT018 BKN055 11/10 Q1013 BLU BLU TEMPO YLO

MVFR

11°C / 11°C

[Daha fazla]
Rüzgar 320º 15kt
Görünürlük 8000m
Hava Light Rain 1.00mm precipitation
Bulutlar Vertical Visibility of 0ft.
Broken Clouds 1200ft
Overcast 2800ft
Basınç 1012
Değiştir Temporary: YLO
Ham ETNW 150855Z 32015KT 8000 -RA FEW008 BKN012 OVC028 11/11 Q1012 RERA GRN BLU TEMPO YLO

MVFR

11°C / 11°C

[Daha fazla]
Rüzgar 320º 17kt
Görünürlük 5000m
Hava Light Rain Mist 1.00mm precipitation
Bulutlar Vertical Visibility of 0ft.
Broken Clouds 1100ft
Overcast 2800ft
Basınç 1012
Değiştir Temporary: YLO
Ham ETNW 150850Z 32017KT 5000 -RA BR FEW007 BKN011 OVC028 11/11 Q1012 RERA GRN BLU TEMPO YLO

Bordenau (ETNW) için TAF

From till


From till Wind 270º 7kt. Visibility 10km or more. Scattered Clouds 2000ft.
With 30% probability, from till Wind 250º 5kt. Visibility 4000m. Mist . Few Clouds 1500ft.

Ham: TAF ETNW 151600Z 1517/1617 27007KT 9999 NSW SCT020 PROB30 1600/1608 25005KT 4000 BR FEW015 BY ETGL

rainNOW: Şimdi Bordenau ve çevresi için yağmur yağıyor (25km yarıçap)

0.0 mm
0.0 mm
0.0 mm
0.0 mm
0.0 mm
0.0 mm
0.0 mm
0.0 mm
0.0 mm
0.0 mm
0.0 mm
0.0 mm

Bordenau için şu anki uydu ve yağmur görüntüleri, Almanya

Konum işaretleyici Bordenau üzerine yerleştirilir. [Daha fazla]

Gerçek zamanlı uydu görüntüsü gündüz süresince görülür ışığı gece süresince kızılötesi ışınım ile birleştirir. Gece kızılötesi ışınım sıcaklık farklarını algılayabildiğinden dolayı görüntü karanlık değildir. Ancak düşük bulutları ve sisi yer sıcaklığından ayırmak zordur ve bu nedenle gece boyunca neredeyse görünmez olabilirler. Avrupa için Meteosat uydu görüntüleri gerçek zamanlı olarak her 5 dakikada bir güncellenir. GOES-16/GOES-17 (Kuzey ve Güney Amerika) ve Himawari (Asya) görüntüleri her 10 dakikada bir güncellenir.

Yağış radar ve uydudan tahmin edilir. Uydulardan gece yapılan yağış tahminleri gündüz yapılan tahminlere göre daha az kusursuzdur. Turuncu çarpılar şimşeklerin saptandığı yerleri gösterir (Avrupa üzeri).

Copyright 2021 EUMETSAT / meteoblue. nowcast tarafından sağlanan şimşek verileri.

Bordenau için Radar

çiseleyen yağmur
Hafif
Orta
Ağır
Çok ağır
Selamlamak

Konum işaretleyicisi Bordenau üzerine yerleştirilir. Bu animasyon son saat içerisindeki yağış radarını ve 2h tahminini gösterir. Radar için çiseleyen yağmur veya hafif kar yağışı görünmez olabilir. Yağış yoğunluğu açık maviden turuncuya değişen renk kodludur.
Copyright 2021 Deutscher Wetterdienst / meteoblue.